createdAt,value
2023-05-14T00:01:28.167Z,20.89
2023-05-14T00:03:54.864Z,20.88
2023-05-14T00:06:21.559Z,20.89
2023-05-14T00:08:47.983Z,20.88
2023-05-14T00:11:14.634Z,20.90
2023-05-14T00:13:41.118Z,20.90
2023-05-14T00:16:07.708Z,20.87
2023-05-14T00:18:34.263Z,20.87
2023-05-14T00:21:00.780Z,20.87
2023-05-14T00:23:27.204Z,20.87
2023-05-14T00:25:53.640Z,20.87
2023-05-14T00:28:20.304Z,20.86
2023-05-14T00:30:46.795Z,20.87
2023-05-14T00:33:13.420Z,20.87
2023-05-14T00:35:39.847Z,20.86
2023-05-14T00:38:06.319Z,20.87
2023-05-14T00:40:33.005Z,20.88
2023-05-14T00:42:59.610Z,20.87
2023-05-14T00:45:26.279Z,20.85
2023-05-14T00:47:54.028Z,20.85
2023-05-14T00:50:21.274Z,20.86
2023-05-14T00:52:48.028Z,20.85
2023-05-14T00:55:16.642Z,20.86
2023-05-14T00:57:43.840Z,20.86
2023-05-14T01:00:10.905Z,20.83
2023-05-14T01:02:37.520Z,20.84
2023-05-14T01:05:04.513Z,20.85
2023-05-14T01:07:42.882Z,20.82
2023-05-14T01:10:32.175Z,20.82
2023-05-14T01:13:21.879Z,20.81
2023-05-14T01:15:49.259Z,20.85
2023-05-14T01:18:19.173Z,20.82
2023-05-14T01:20:46.022Z,20.82
2023-05-14T01:23:12.437Z,20.82
2023-05-14T01:25:38.892Z,20.81
2023-05-14T01:28:14.788Z,20.82
2023-05-14T01:30:48.928Z,20.80
2023-05-14T01:33:21.884Z,20.81
2023-05-14T01:35:49.680Z,20.82
2023-05-14T01:38:18.729Z,20.80
2023-05-14T01:40:46.767Z,20.80
2023-05-14T01:43:15.145Z,20.80
2023-05-14T01:45:42.289Z,20.77
2023-05-14T01:48:08.789Z,20.77
2023-05-14T01:50:35.289Z,20.77
2023-05-14T01:53:01.799Z,20.77
2023-05-14T01:55:28.232Z,20.78
2023-05-14T01:57:54.939Z,20.78
2023-05-14T02:00:27.861Z,20.79
2023-05-14T02:02:54.362Z,20.76
2023-05-14T02:05:21.158Z,20.76
2023-05-14T02:07:47.948Z,20.75
2023-05-14T02:10:14.510Z,20.75
2023-05-14T02:12:41.002Z,20.75
2023-05-14T02:15:09.009Z,20.72
2023-05-14T02:17:35.510Z,20.72
2023-05-14T02:20:02.010Z,20.72
2023-05-14T02:22:28.466Z,20.74
2023-05-14T02:24:54.879Z,20.71
2023-05-14T02:27:21.419Z,20.72
2023-05-14T02:29:47.934Z,20.71
2023-05-14T02:32:14.468Z,20.71
2023-05-14T02:34:40.940Z,20.69
2023-05-14T02:37:07.418Z,20.71
2023-05-14T02:39:33.944Z,20.70
2023-05-14T02:42:00.381Z,20.70
2023-05-14T02:44:26.797Z,20.69
2023-05-14T02:46:53.370Z,20.66
2023-05-14T02:49:19.937Z,20.68
2023-05-14T02:51:46.374Z,20.68
2023-05-14T02:54:12.762Z,20.68
2023-05-14T02:56:39.224Z,20.70
2023-05-14T02:59:05.656Z,20.69
2023-05-14T03:01:32.525Z,20.66
2023-05-14T03:03:59.439Z,20.66
2023-05-14T03:06:25.901Z,20.65
2023-05-14T03:08:52.303Z,20.66
2023-05-14T03:11:18.757Z,20.65
2023-05-14T03:13:45.327Z,20.66
2023-05-14T03:16:11.866Z,20.66
2023-05-14T03:18:38.299Z,20.64
2023-05-14T03:21:04.795Z,20.62
2023-05-14T03:23:35.053Z,20.65
2023-05-14T03:26:02.159Z,20.63
2023-05-14T03:28:28.561Z,20.64
2023-05-14T03:30:55.060Z,20.62
2023-05-14T03:33:21.881Z,20.63
2023-05-14T03:35:48.388Z,20.64
2023-05-14T03:38:14.798Z,20.64
2023-05-14T03:40:41.275Z,20.61
2023-05-14T03:43:07.669Z,20.63
2023-05-14T03:45:34.108Z,20.63
2023-05-14T03:48:00.684Z,20.61
2023-05-14T03:50:27.282Z,20.60
2023-05-14T03:52:54.932Z,20.61
2023-05-14T03:55:21.600Z,20.59
2023-05-14T03:57:48.710Z,20.59
2023-05-14T04:00:16.035Z,20.58
2023-05-14T04:02:42.733Z,20.59
2023-05-14T04:05:09.629Z,20.58
2023-05-14T04:07:36.056Z,20.59
2023-05-14T04:10:05.727Z,20.58
2023-05-14T04:12:32.152Z,20.58
2023-05-14T04:14:58.600Z,20.57
2023-05-14T04:17:25.701Z,20.56
2023-05-14T04:19:52.271Z,20.57
2023-05-14T04:22:18.698Z,20.58
2023-05-14T04:24:45.114Z,20.56
2023-05-14T04:27:11.517Z,20.58
2023-05-14T04:29:37.913Z,20.55
2023-05-14T04:32:04.854Z,20.55
2023-05-14T04:34:31.380Z,20.54
2023-05-14T04:36:57.812Z,20.55
2023-05-14T04:39:24.685Z,20.54
2023-05-14T04:41:51.182Z,20.54
2023-05-14T04:44:17.857Z,20.54
2023-05-14T04:46:44.260Z,20.53
2023-05-14T04:49:10.704Z,20.55
2023-05-14T04:51:37.120Z,20.53
2023-05-14T04:54:03.706Z,20.53
2023-05-14T04:56:30.111Z,20.53
2023-05-14T04:58:56.559Z,20.53
2023-05-14T05:01:23.651Z,20.52
2023-05-14T05:03:50.958Z,20.53
2023-05-14T05:06:17.724Z,20.52
2023-05-14T05:08:44.141Z,20.53
2023-05-14T05:11:10.622Z,20.52
2023-05-14T05:13:37.062Z,20.51
2023-05-14T05:16:03.647Z,20.53
2023-05-14T05:18:30.294Z,20.53
2023-05-14T05:20:56.726Z,20.53
2023-05-14T05:23:23.378Z,20.55
2023-05-14T05:25:50.506Z,20.53
2023-05-14T05:28:16.958Z,20.54
2023-05-14T05:30:45.184Z,20.55
2023-05-14T05:33:12.520Z,20.53
2023-05-14T05:35:39.095Z,20.51
2023-05-14T05:38:05.569Z,20.53
2023-05-14T05:40:32.052Z,20.52
2023-05-14T05:42:58.461Z,20.51
2023-05-14T05:45:24.867Z,20.54
2023-05-14T05:47:51.360Z,20.52
2023-05-14T05:50:18.952Z,20.52
2023-05-14T05:52:46.536Z,20.54
2023-05-14T05:55:12.963Z,20.51
2023-05-14T05:57:39.423Z,20.52
2023-05-14T06:00:13.237Z,20.53
2023-05-14T06:02:40.805Z,20.52
2023-05-14T06:05:08.547Z,20.57
2023-05-14T06:07:35.325Z,20.62
2023-05-14T06:10:02.044Z,20.63
2023-05-14T06:12:28.507Z,20.61
2023-05-14T06:14:57.706Z,20.61
2023-05-14T06:17:25.228Z,20.64
2023-05-14T06:19:52.304Z,20.67
2023-05-14T06:22:18.960Z,20.70
2023-05-14T06:24:45.644Z,20.69
2023-05-14T06:27:12.043Z,20.70
2023-05-14T06:29:38.625Z,20.72
2023-05-14T06:32:05.573Z,20.76
2023-05-14T06:34:32.157Z,20.79
2023-05-14T06:36:58.646Z,20.81
2023-05-14T06:39:25.102Z,20.81
2023-05-14T06:41:51.671Z,20.83
2023-05-14T06:44:19.515Z,20.86
2023-05-14T06:46:46.001Z,20.87
2023-05-14T06:49:12.471Z,20.88
2023-05-14T06:51:39.136Z,20.89
2023-05-14T06:54:05.619Z,20.91
2023-05-14T06:56:32.052Z,20.89
2023-05-14T06:58:58.462Z,20.92
2023-05-14T07:01:24.938Z,20.92
2023-05-14T07:03:51.441Z,20.91
2023-05-14T07:06:17.912Z,20.92
2023-05-14T07:08:47.338Z,20.91
2023-05-14T07:11:14.124Z,20.91
2023-05-14T07:13:41.197Z,20.94
2023-05-14T07:16:11.265Z,20.94
2023-05-14T07:18:37.802Z,20.93
2023-05-14T07:21:07.234Z,20.94
2023-05-14T07:23:36.537Z,20.98
2023-05-14T07:26:03.551Z,20.96
2023-05-14T07:28:30.002Z,20.91
2023-05-14T07:30:56.575Z,20.91
2023-05-14T07:33:23.560Z,20.87
2023-05-14T07:35:50.530Z,20.91
2023-05-14T07:38:20.020Z,20.92
2023-05-14T07:40:46.707Z,20.93
2023-05-14T07:43:14.480Z,20.88
2023-05-14T07:45:41.223Z,20.85
2023-05-14T07:48:07.882Z,20.87
2023-05-14T07:50:34.510Z,20.86
2023-05-14T07:53:00.896Z,20.85
2023-05-14T07:55:27.292Z,20.86
2023-05-14T07:57:53.725Z,20.85
2023-05-14T08:00:20.299Z,20.85
2023-05-14T08:02:46.892Z,20.87
2023-05-14T08:05:13.505Z,20.86
2023-05-14T08:07:39.965Z,20.88
2023-05-14T08:10:07.806Z,20.87
2023-05-14T08:12:34.318Z,20.86
2023-05-14T08:15:00.786Z,20.87
2023-05-14T08:17:27.295Z,20.87
2023-05-14T08:19:54.124Z,20.87
2023-05-14T08:22:20.639Z,20.87
2023-05-14T08:24:47.176Z,20.87
2023-05-14T08:27:13.646Z,20.87
2023-05-14T08:29:40.059Z,20.82
2023-05-14T08:32:19.359Z,20.86
2023-05-14T08:34:50.110Z,20.87
2023-05-14T08:37:16.527Z,20.89
2023-05-14T08:39:42.946Z,20.90
2023-05-14T08:42:12.688Z,20.90
2023-05-14T08:44:47.733Z,20.91
2023-05-14T08:47:16.068Z,20.87
2023-05-14T08:49:44.938Z,20.88
2023-05-14T08:52:12.356Z,20.89
2023-05-14T08:54:40.394Z,20.88
2023-05-14T08:57:09.929Z,20.88
2023-05-14T08:59:36.587Z,20.87
2023-05-14T09:02:06.363Z,20.86
2023-05-14T09:04:33.760Z,20.86
2023-05-14T09:07:02.130Z,20.90
2023-05-14T09:09:28.670Z,20.92
2023-05-14T09:11:55.179Z,20.86
2023-05-14T09:14:22.459Z,20.82
2023-05-14T09:16:50.614Z,20.84
2023-05-14T09:19:19.227Z,20.87
2023-05-14T09:21:50.077Z,20.83
2023-05-14T09:24:26.849Z,20.81
2023-05-14T09:26:54.690Z,20.86
2023-05-14T09:29:21.390Z,20.91
2023-05-14T09:31:50.473Z,20.91
2023-05-14T09:34:28.374Z,20.90
2023-05-14T09:36:58.624Z,20.90
2023-05-14T09:39:25.769Z,20.89
2023-05-14T09:41:52.345Z,20.87
2023-05-14T09:44:19.746Z,20.83
2023-05-14T09:46:46.948Z,20.85
2023-05-14T09:49:13.539Z,20.88
2023-05-14T09:51:40.095Z,20.89
2023-05-14T09:54:07.342Z,20.92
2023-05-14T09:56:34.991Z,20.88
2023-05-14T09:59:01.548Z,20.81
2023-05-14T10:01:29.286Z,20.83
2023-05-14T10:03:56.508Z,20.84
2023-05-14T10:06:29.459Z,20.79
2023-05-14T10:08:59.898Z,20.80
2023-05-14T10:11:30.465Z,20.81
2023-05-14T10:14:04.550Z,20.82
2023-05-14T10:16:37.921Z,20.79
2023-05-14T10:19:11.823Z,20.82
2023-05-14T10:21:41.212Z,20.82
2023-05-14T10:24:09.833Z,20.85
2023-05-14T10:26:39.268Z,20.86
2023-05-14T10:29:06.520Z,20.89
2023-05-14T10:31:56.525Z,20.91
2023-05-14T10:34:40.765Z,20.92
2023-05-14T10:37:11.574Z,20.93
2023-05-14T10:39:56.776Z,21.05
2023-05-14T10:42:25.812Z,21.04
2023-05-14T10:44:58.888Z,21.06
2023-05-14T10:47:29.424Z,21.01
2023-05-14T10:49:57.728Z,21.05
2023-05-14T10:52:26.358Z,21.08
2023-05-14T10:55:03.131Z,21.13
2023-05-14T10:57:31.600Z,21.20
2023-05-14T11:00:00.241Z,21.27
2023-05-14T11:02:27.683Z,21.34
2023-05-14T11:04:58.132Z,21.41
2023-05-14T11:07:29.100Z,21.48
2023-05-14T11:10:01.260Z,21.60
2023-05-14T11:12:28.811Z,21.70
2023-05-14T11:14:59.354Z,21.79
2023-05-14T11:17:27.103Z,21.82
2023-05-14T11:19:54.023Z,21.85
2023-05-14T11:22:20.910Z,21.92
2023-05-14T11:24:47.683Z,21.98
2023-05-14T11:27:14.211Z,22.05
2023-05-14T11:29:46.792Z,22.12
2023-05-14T11:32:14.299Z,22.21
2023-05-14T11:34:42.061Z,22.26
2023-05-14T11:37:10.098Z,22.32
2023-05-14T11:39:39.616Z,22.38
2023-05-14T11:42:12.288Z,22.44
2023-05-14T11:44:39.333Z,22.48
2023-05-14T11:47:06.512Z,22.49
2023-05-14T11:49:35.473Z,22.54
2023-05-14T11:52:03.821Z,22.56
2023-05-14T11:54:31.599Z,22.59
2023-05-14T11:56:59.419Z,22.60
2023-05-14T11:59:27.556Z,22.62
2023-05-14T12:01:55.060Z,22.58
2023-05-14T12:04:22.911Z,22.50
2023-05-14T12:06:51.527Z,22.55
2023-05-14T12:09:19.307Z,22.60
2023-05-14T12:11:51.054Z,22.63
2023-05-14T12:14:20.738Z,22.69
2023-05-14T12:16:48.735Z,22.72
2023-05-14T12:19:17.881Z,22.75
2023-05-14T12:21:45.596Z,22.78
2023-05-14T12:24:13.351Z,22.80
2023-05-14T12:26:43.984Z,22.83
2023-05-14T12:29:13.437Z,22.81
2023-05-14T12:31:46.645Z,22.73
2023-05-14T12:34:13.265Z,22.71
2023-05-14T12:36:39.761Z,22.67
2023-05-14T12:39:06.182Z,22.61
2023-05-14T12:41:33.496Z,22.64
2023-05-14T12:44:00.798Z,22.77
2023-05-14T12:46:27.897Z,22.83
2023-05-14T12:48:54.810Z,22.85
2023-05-14T12:51:21.304Z,22.72
2023-05-14T12:53:48.164Z,22.63
2023-05-14T12:56:14.966Z,22.63
2023-05-14T12:58:41.509Z,22.62
2023-05-14T13:01:08.540Z,22.61
2023-05-14T13:03:35.052Z,22.59
2023-05-14T13:06:01.623Z,22.51
2023-05-14T13:08:28.314Z,22.46
2023-05-14T13:10:55.853Z,22.38
2023-05-14T13:13:23.503Z,22.32
2023-05-14T13:15:50.075Z,22.30
2023-05-14T13:18:20.404Z,22.27
2023-05-14T13:20:49.480Z,22.24
2023-05-14T13:23:15.909Z,22.16
2023-05-14T13:25:42.340Z,22.10
2023-05-14T13:28:09.292Z,22.07
2023-05-14T13:30:35.983Z,22.07
2023-05-14T13:33:02.532Z,22.08
2023-05-14T13:35:29.025Z,22.07
2023-05-14T13:37:55.453Z,22.06
2023-05-14T13:40:22.020Z,22.05
2023-05-14T13:42:48.496Z,22.04
2023-05-14T13:45:14.984Z,21.96
2023-05-14T13:47:41.517Z,21.91
2023-05-14T13:50:08.324Z,21.80
2023-05-14T13:52:34.789Z,21.83
2023-05-14T13:55:01.624Z,21.85
2023-05-14T13:57:28.048Z,21.87
2023-05-14T13:59:54.516Z,21.86
2023-05-14T14:02:21.083Z,21.87
2023-05-14T14:04:49.353Z,21.86
2023-05-14T14:07:15.842Z,21.88
2023-05-14T14:09:42.269Z,21.89
2023-05-14T14:12:09.258Z,21.90
2023-05-14T14:14:35.695Z,21.90
2023-05-14T14:17:02.162Z,21.89
2023-05-14T14:19:28.592Z,21.89
2023-05-14T14:21:55.065Z,21.87
2023-05-14T14:24:21.460Z,21.87
2023-05-14T14:26:47.936Z,21.85
2023-05-14T14:29:14.446Z,21.84
2023-05-14T14:31:41.022Z,21.84
2023-05-14T14:34:07.541Z,21.84
2023-05-14T14:36:34.029Z,21.84
2023-05-14T14:39:00.441Z,21.84
2023-05-14T14:41:27.408Z,21.84
2023-05-14T14:43:53.928Z,21.83
2023-05-14T14:46:20.388Z,21.82
2023-05-14T14:48:46.914Z,21.83
2023-05-14T14:51:13.449Z,21.83
2023-05-14T14:53:40.469Z,21.82
2023-05-14T14:56:07.102Z,21.82
2023-05-14T14:58:33.676Z,21.79
2023-05-14T15:01:01.170Z,21.80
2023-05-14T15:03:28.068Z,21.80
2023-05-14T15:05:54.612Z,21.77
2023-05-14T15:08:25.643Z,21.75
2023-05-14T15:10:52.240Z,21.74
2023-05-14T15:13:19.118Z,21.72
2023-05-14T15:15:45.708Z,21.68
2023-05-14T15:18:12.210Z,21.67
2023-05-14T15:20:38.906Z,21.63
2023-05-14T15:23:06.085Z,21.63
2023-05-14T15:25:32.668Z,21.65
2023-05-14T15:27:59.126Z,21.64
2023-05-14T15:30:25.594Z,21.65
2023-05-14T15:32:52.379Z,21.67
2023-05-14T15:35:19.060Z,21.66
2023-05-14T15:37:45.569Z,21.66
2023-05-14T15:40:12.488Z,21.63
2023-05-14T15:42:43.650Z,21.64
2023-05-14T15:45:12.342Z,21.64
2023-05-14T15:47:38.861Z,21.64
2023-05-14T15:50:05.914Z,21.63
2023-05-14T15:52:32.486Z,21.62
2023-05-14T15:54:59.598Z,21.64
2023-05-14T15:57:26.253Z,21.62
2023-05-14T15:59:52.685Z,21.63
2023-05-14T16:02:19.170Z,21.62
2023-05-14T16:04:45.680Z,21.62
2023-05-14T16:07:13.164Z,21.60
2023-05-14T16:09:39.595Z,21.61
2023-05-14T16:12:06.847Z,21.61
2023-05-14T16:14:34.678Z,21.61
2023-05-14T16:17:02.068Z,21.61
2023-05-14T16:19:28.674Z,21.62
2023-05-14T16:21:55.097Z,21.63
2023-05-14T16:24:21.638Z,21.64
2023-05-14T16:26:48.206Z,21.65
2023-05-14T16:29:14.664Z,21.61
2023-05-14T16:31:41.230Z,21.60
2023-05-14T16:34:07.687Z,21.58
2023-05-14T16:36:34.253Z,21.55
2023-05-14T16:41:30.064Z,21.52
2023-05-14T16:43:56.552Z,21.51
2023-05-14T16:46:23.131Z,21.50
2023-05-14T16:48:50.701Z,21.49
2023-05-14T16:51:17.270Z,21.53
2023-05-14T16:53:43.679Z,21.52
2023-05-14T16:56:11.034Z,21.55
2023-05-14T16:58:37.508Z,21.60
2023-05-14T17:01:04.147Z,21.63
2023-05-14T17:03:30.640Z,21.63
2023-05-14T17:05:57.172Z,21.64
2023-05-14T17:08:23.681Z,21.61
2023-05-14T17:10:50.182Z,21.62
2023-05-14T17:13:16.821Z,21.61
2023-05-14T17:15:44.033Z,21.62
2023-05-14T17:18:12.041Z,21.64
2023-05-14T17:20:38.634Z,21.60
2023-05-14T17:23:05.024Z,21.59
2023-05-14T17:25:33.163Z,21.59
2023-05-14T17:28:00.092Z,21.58
2023-05-14T17:30:26.635Z,21.59
2023-05-14T17:32:53.146Z,21.60
2023-05-14T17:35:19.711Z,21.59
2023-05-14T17:37:46.345Z,21.60
2023-05-14T17:40:13.268Z,21.56
2023-05-14T17:42:39.692Z,21.53
2023-05-14T17:45:06.879Z,21.58
2023-05-14T17:47:33.394Z,21.61
2023-05-14T17:49:59.961Z,21.64
2023-05-14T17:52:26.387Z,21.69
2023-05-14T17:54:52.794Z,21.75
2023-05-14T17:57:19.251Z,21.81
2023-05-14T17:59:45.717Z,21.88
2023-05-14T18:02:12.125Z,21.95
2023-05-14T18:04:38.539Z,22.02
2023-05-14T18:07:05.483Z,22.10
2023-05-14T18:09:32.122Z,22.17
2023-05-14T18:11:58.546Z,22.26
2023-05-14T18:14:25.038Z,22.33
2023-05-14T18:16:51.556Z,22.40
2023-05-14T18:19:18.447Z,22.44
2023-05-14T18:21:48.070Z,22.49
2023-05-14T18:24:14.642Z,22.54
2023-05-14T18:26:41.080Z,22.60
2023-05-14T18:29:07.516Z,22.63
2023-05-14T18:31:34.017Z,22.65
2023-05-14T18:34:00.539Z,22.65
2023-05-14T18:36:27.005Z,22.70
2023-05-14T18:38:53.386Z,22.72
2023-05-14T18:41:19.808Z,22.71
2023-05-14T18:43:46.300Z,22.61
2023-05-14T18:46:12.793Z,22.57
2023-05-14T18:48:39.320Z,22.53
2023-05-14T18:51:05.787Z,22.48
2023-05-14T18:53:32.289Z,22.43
2023-05-14T18:56:00.077Z,22.32
2023-05-14T18:58:26.494Z,22.27
2023-05-14T19:00:52.897Z,22.21
2023-05-14T19:03:20.298Z,22.20
2023-05-14T19:05:47.194Z,22.17
2023-05-14T19:08:13.731Z,22.13
2023-05-14T19:10:40.183Z,22.08
2023-05-14T19:13:06.618Z,22.01
2023-05-14T19:15:33.147Z,22.01
2023-05-14T19:18:00.331Z,21.97
2023-05-14T19:20:27.260Z,21.88
2023-05-14T19:22:53.686Z,21.85
2023-05-14T19:25:20.105Z,21.89
2023-05-14T19:27:50.878Z,21.89
2023-05-14T19:30:17.865Z,21.83
2023-05-14T19:32:44.341Z,21.72
2023-05-14T19:35:11.517Z,21.70
2023-05-14T19:37:38.148Z,21.67
2023-05-14T19:40:06.179Z,21.54
2023-05-14T19:42:32.623Z,21.53
2023-05-14T19:44:59.037Z,21.52
2023-05-14T19:47:25.582Z,21.47
2023-05-14T19:49:52.049Z,21.49
2023-05-14T19:52:18.455Z,21.51
2023-05-14T19:54:44.935Z,21.50
2023-05-14T19:57:11.328Z,21.48
2023-05-14T19:59:39.119Z,21.44
2023-05-14T20:02:05.757Z,21.40
2023-05-14T20:04:33.226Z,21.32
2023-05-14T20:06:59.648Z,21.31
2023-05-14T20:09:26.131Z,21.29
2023-05-14T20:11:52.570Z,21.32
2023-05-14T20:14:18.964Z,21.38
2023-05-14T20:16:46.980Z,21.42
2023-05-14T20:19:14.257Z,21.46
2023-05-14T20:21:40.768Z,21.44
2023-05-14T20:24:07.234Z,21.43
2023-05-14T20:26:33.955Z,21.37
2023-05-14T20:29:00.619Z,21.31
2023-05-14T20:31:27.112Z,21.23
2023-05-14T20:33:53.651Z,21.14
2023-05-14T20:36:20.198Z,21.07
2023-05-14T20:38:47.721Z,21.07
2023-05-14T20:41:15.063Z,20.99
2023-05-14T20:43:41.479Z,20.94
2023-05-14T20:46:08.993Z,20.94
2023-05-14T20:48:35.431Z,20.90
2023-05-14T20:51:04.905Z,20.89
2023-05-14T20:53:31.575Z,20.94
2023-05-14T20:55:59.004Z,20.97
2023-05-14T20:58:25.609Z,20.99
2023-05-14T21:00:52.125Z,21.03
2023-05-14T21:03:18.730Z,21.03
2023-05-14T21:05:45.671Z,21.03
2023-05-14T21:08:12.113Z,21.04
2023-05-14T21:10:38.542Z,21.02
2023-05-14T21:13:05.013Z,20.98
2023-05-14T21:15:31.499Z,20.99
2023-05-14T21:17:58.127Z,21.00
2023-05-14T21:20:24.694Z,21.00
2023-05-14T21:22:51.150Z,21.00
2023-05-14T21:25:20.471Z,21.02
2023-05-14T21:27:46.904Z,21.01
2023-05-14T21:30:13.760Z,21.02
2023-05-14T21:32:40.338Z,21.01
2023-05-14T21:35:07.174Z,21.01
2023-05-14T21:37:33.652Z,21.04
2023-05-14T21:40:00.284Z,21.02
2023-05-14T21:42:26.699Z,21.04
2023-05-14T21:44:53.068Z,21.04
2023-05-14T21:47:21.047Z,21.04
2023-05-14T21:49:47.686Z,21.04
2023-05-14T21:52:14.192Z,21.04
2023-05-14T21:54:40.589Z,21.01
2023-05-14T21:57:07.035Z,21.01
2023-05-14T21:59:33.951Z,20.87
2023-05-14T22:04:29.703Z,20.83
2023-05-14T22:06:56.374Z,20.82
2023-05-14T22:09:22.828Z,20.82
2023-05-14T22:11:49.290Z,20.86
2023-05-14T22:14:15.701Z,20.88
2023-05-14T22:16:42.161Z,20.91
2023-05-14T22:19:08.770Z,20.93
2023-05-14T22:21:35.359Z,20.93
2023-05-14T22:24:01.887Z,20.91
2023-05-14T22:26:28.308Z,20.84
2023-05-14T22:28:56.859Z,20.86
2023-05-14T22:31:23.604Z,20.87
2023-05-14T22:33:50.044Z,20.85
2023-05-14T22:36:16.690Z,20.88
2023-05-14T22:38:43.845Z,20.89
2023-05-14T22:41:10.894Z,20.86
2023-05-14T22:43:37.329Z,20.70
2023-05-14T22:46:04.042Z,20.63
2023-05-14T22:48:30.519Z,20.60
2023-05-14T22:50:56.964Z,20.58
2023-05-14T22:53:25.167Z,20.61
2023-05-14T22:55:51.813Z,20.60
2023-05-14T22:58:18.270Z,20.65
2023-05-14T23:00:44.740Z,20.66
2023-05-14T23:03:11.133Z,20.71
2023-05-14T23:05:37.650Z,20.68
2023-05-14T23:08:04.275Z,20.58
2023-05-14T23:10:30.721Z,20.51
2023-05-14T23:12:57.180Z,20.46
2023-05-14T23:15:23.907Z,20.45
2023-05-14T23:17:50.645Z,20.53
2023-05-14T23:20:17.653Z,20.57
2023-05-14T23:22:44.093Z,20.57
2023-05-14T23:25:10.576Z,20.61
2023-05-14T23:27:37.045Z,20.60
2023-05-14T23:30:04.252Z,20.58
2023-05-14T23:32:30.784Z,20.53
2023-05-14T23:34:57.270Z,20.46
2023-05-14T23:37:24.015Z,20.45
2023-05-14T23:39:50.788Z,20.43
2023-05-14T23:42:20.163Z,20.40
2023-05-14T23:44:46.609Z,20.38
2023-05-14T23:47:13.101Z,20.36
2023-05-14T23:49:40.806Z,20.36
2023-05-14T23:52:07.307Z,20.37
2023-05-14T23:54:33.801Z,20.36
2023-05-14T23:57:00.403Z,20.32
2023-05-14T23:59:26.904Z,20.33
